Time;durP1;ratioP1;P1;durP2;ratioP2;P2;SDS_P1;SDS_P2;PMS_P1;PMS_P2;Temp;Humidity;BMP_temperature;BMP_pressure;BME280_temperature;BME280_humidity;BME280_pressure;Samples;Min_cycle;Max_cycle;Signal;HPM_P1;HPM_P2
2023/11/16 00:02:04;;;;;;;55.57;2.00;;;;;;;;;;5051956;28;20540;-71
2023/11/16 00:04:33;;;;;;;55.70;2.20;;;;;;;;;;5052039;28;20938;-72
2023/11/16 00:07:00;;;;;;;58.00;3.43;;;;;;;;;;5052163;28;20466;-72
2023/11/16 00:09:27;;;;;;;55.57;2.30;;;;;;;;;;5051632;28;20465;-72
2023/11/16 00:11:55;;;;;;;55.80;2.17;;;;;;;;;;5051783;28;20524;-72
2023/11/16 00:14:22;;;;;;;55.90;2.30;;;;;;;;;;5051520;28;20446;-72
2023/11/16 00:16:49;;;;;;;55.77;2.20;;;;;;;;;;5051880;28;20453;-72
2023/11/16 00:19:18;;;;;;;56.00;2.00;;;;;;;;;;5051676;28;20452;-72
2023/11/16 00:21:46;;;;;;;55.90;2.27;;;;;;;;;;5051516;28;21021;-71
2023/11/16 00:24:13;;;;;;;55.67;2.40;;;;;;;;;;5051481;28;20529;-72
2023/11/16 00:26:40;;;;;;;55.80;2.40;;;;;;;;;;5051484;28;20447;-72
2023/11/16 00:29:08;;;;;;;55.80;2.20;;;;;;;;;;5051251;28;20452;-72
2023/11/16 00:31:35;;;;;;;55.67;2.10;;;;;;;;;;5051186;28;20475;-71
2023/11/16 00:34:02;;;;;;;55.80;2.30;;;;;;;;;;5051507;28;20822;-72
2023/11/16 00:36:30;;;;;;;55.90;2.07;;;;;;;;;;5051213;28;20537;-71
2023/11/16 00:38:58;;;;;;;55.60;2.00;;;;;;;;;;5051259;28;20450;-71
2023/11/16 00:41:25;;;;;;;55.63;2.40;;;;;;;;;;5050512;28;20479;-72
2023/11/16 00:43:53;;;;;;;56.30;2.40;;;;;;;;;;5051165;28;20482;-72
2023/11/16 00:46:21;;;;;;;55.77;2.20;;;;;;;;;;5051060;28;20454;-72
2023/11/16 00:48:49;;;;;;;56.00;2.93;;;;;;;;;;5051490;28;20459;-72
2023/11/16 00:51:16;;;;;;;55.90;2.10;;;;;;;;;;5051098;28;20502;-71
2023/11/16 00:53:45;;;;;;;55.67;1.90;;;;;;;;;;5050835;28;20534;-72
2023/11/16 00:56:12;;;;;;;56.07;2.07;;;;;;;;;;5050887;28;20450;-72
2023/11/16 00:58:39;;;;;;;56.20;2.10;;;;;;;;;;5051271;28;20877;-71
2023/11/16 01:01:07;;;;;;;55.83;2.10;;;;;;;;;;5051092;28;20917;-72
2023/11/16 01:03:34;;;;;;;55.50;2.10;;;;;;;;;;5050952;28;20487;-72
2023/11/16 01:06:02;;;;;;;55.80;1.97;;;;;;;;;;5051126;28;20582;-72
2023/11/16 01:08:33;;;;;;;55.73;2.10;;;;;;;;;;5050596;28;20540;-72
2023/11/16 01:11:02;;;;;;;56.00;2.10;;;;;;;;;;5050785;28;20867;-72
2023/11/16 01:13:38;;;;;;;55.77;2.00;;;;;;;;;;5051128;28;20450;-72
2023/11/16 01:16:09;;;;;;;55.73;2.10;;;;;;;;;;5051031;28;21076;-72
2023/11/16 01:18:37;;;;;;;56.07;2.20;;;;;;;;;;5050783;28;20454;-71
2023/11/16 01:21:08;;;;;;;55.83;2.40;;;;;;;;;;5050671;28;20497;-71
2023/11/16 01:23:36;;;;;;;55.53;2.00;;;;;;;;;;5050546;28;20503;-71
2023/11/16 01:26:13;;;;;;;55.57;1.90;;;;;;;;;;5050706;28;20561;-71
2023/11/16 01:28:45;;;;;;;55.57;2.00;;;;;;;;;;5050981;28;20846;-72
2023/11/16 01:31:12;;;;;;;55.57;2.03;;;;;;;;;;5051152;28;20466;-72
2023/11/16 01:33:39;;;;;;;55.70;2.00;;;;;;;;;;5051068;28;20827;-72
2023/11/16 01:36:08;;;;;;;55.67;2.20;;;;;;;;;;5051224;28;20447;-72
2023/11/16 01:38:36;;;;;;;55.33;2.10;;;;;;;;;;5050878;28;20475;-72
2023/11/16 01:41:06;;;;;;;55.63;1.90;;;;;;;;;;5050579;28;20806;-72
2023/11/16 01:43:33;;;;;;;55.97;2.00;;;;;;;;;;5050421;28;21036;-72
2023/11/16 01:46:05;;;;;;;55.70;2.17;;;;;;;;;;5050476;28;20458;-73
2023/11/16 01:48:34;;;;;;;57.00;3.00;;;;;;;;;;5050476;28;20455;-73
2023/11/16 01:51:04;;;;;;;55.80;2.20;;;;;;;;;;5050541;28;20557;-72
2023/11/16 01:53:31;;;;;;;55.67;2.20;;;;;;;;;;5052431;28;20500;-71
2023/11/16 01:55:59;;;;;;;55.90;2.10;;;;;;;;;;5054231;28;20450;-71
2023/11/16 01:58:28;;;;;;;55.53;2.10;;;;;;;;;;5054271;28;20455;-71
2023/11/16 02:00:56;;;;;;;56.10;2.30;;;;;;;;;;5054504;28;20504;-72
2023/11/16 02:03:24;;;;;;;55.77;2.30;;;;;;;;;;5054337;28;20816;-72
2023/11/16 02:05:51;;;;;;;55.73;2.10;;;;;;;;;;5054053;28;20451;-72
2023/11/16 02:08:18;;;;;;;55.93;2.30;;;;;;;;;;5053837;28;20454;-71
2023/11/16 02:10:45;;;;;;;55.77;2.20;;;;;;;;;;5053908;28;20482;-71
2023/11/16 02:13:17;;;;;;;55.90;2.17;;;;;;;;;;5054026;28;20548;-72
2023/11/16 02:15:46;;;;;;;55.67;2.37;;;;;;;;;;5054128;28;20871;-72
2023/11/16 02:18:14;;;;;;;55.60;2.00;;;;;;;;;;5053944;28;20466;-72
2023/11/16 02:20:42;;;;;;;55.27;1.90;;;;;;;;;;5053666;28;20527;-71
2023/11/16 02:23:10;;;;;;;55.80;2.40;;;;;;;;;;5053758;28;20474;-71
2023/11/16 02:25:44;;;;;;;55.93;2.37;;;;;;;;;;5053464;28;20489;-71
2023/11/16 02:28:11;;;;;;;55.90;2.30;;;;;;;;;;5053835;28;20501;-71
2023/11/16 02:30:38;;;;;;;55.67;2.20;;;;;;;;;;5053575;28;20466;-72
2023/11/16 02:33:05;;;;;;;55.67;2.30;;;;;;;;;;5053675;28;20553;-72
2023/11/16 02:35:32;;;;;;;55.80;2.23;;;;;;;;;;5052892;28;20955;-72
2023/11/16 02:37:59;;;;;;;55.87;2.37;;;;;;;;;;5053487;28;20457;-72
2023/11/16 02:40:28;;;;;;;55.73;2.30;;;;;;;;;;5053332;28;20943;-72
2023/11/16 02:42:55;;;;;;;55.83;2.23;;;;;;;;;;5053240;28;20451;-72
2023/11/16 02:45:23;;;;;;;56.10;2.60;;;;;;;;;;5053481;28;20498;-72
2023/11/16 02:47:52;;;;;;;56.00;1.90;;;;;;;;;;5053099;28;20450;-72
2023/11/16 02:50:20;;;;;;;55.80;2.20;;;;;;;;;;5053511;28;20545;-72
2023/11/16 02:52:47;;;;;;;56.57;3.00;;;;;;;;;;5053088;28;20479;-72
2023/11/16 02:55:14;;;;;;;56.00;2.00;;;;;;;;;;5053335;28;20914;-72
2023/11/16 03:00:47;;;;;;;55.77;2.10;;;;;;;;;;5052588;28;20798;-72
2023/11/16 03:03:15;;;;;;;55.63;2.27;;;;;;;;;;5052749;28;20450;-72
2023/11/16 03:05:43;;;;;;;55.77;2.20;;;;;;;;;;5053272;28;20494;-72
2023/11/16 03:08:10;;;;;;;55.27;2.20;;;;;;;;;;5052873;28;20950;-72
2023/11/16 03:10:37;;;;;;;57.30;2.50;;;;;;;;;;5052787;28;20872;-72
2023/11/16 03:13:04;;;;;;;55.97;2.00;;;;;;;;;;5052708;28;20451;-71
2023/11/16 03:15:31;;;;;;;55.47;2.00;;;;;;;;;;5052984;28;20447;-72
2023/11/16 03:18:00;;;;;;;55.97;2.30;;;;;;;;;;5052495;28;20515;-72
2023/11/16 03:20:27;;;;;;;55.93;2.17;;;;;;;;;;5052832;28;20796;-72
2023/11/16 03:22:54;;;;;;;55.83;2.40;;;;;;;;;;5052831;28;20451;-72
2023/11/16 03:25:22;;;;;;;55.80;2.10;;;;;;;;;;5052494;28;20862;-72
2023/11/16 03:27:49;;;;;;;56.10;2.33;;;;;;;;;;5052374;28;20485;-72
2023/11/16 03:30:16;;;;;;;55.50;2.40;;;;;;;;;;5052513;28;20459;-72
2023/11/16 03:32:44;;;;;;;56.10;2.40;;;;;;;;;;5052305;28;21216;-71
2023/11/16 03:35:15;;;;;;;55.80;2.20;;;;;;;;;;5052441;28;20953;-72
2023/11/16 03:37:43;;;;;;;56.00;2.20;;;;;;;;;;5052295;28;20450;-70
2023/11/16 03:40:11;;;;;;;55.77;2.27;;;;;;;;;;5052302;28;20453;-70
2023/11/16 03:42:38;;;;;;;55.97;2.40;;;;;;;;;;5052403;28;20459;-71
2023/11/16 03:45:06;;;;;;;56.00;2.40;;;;;;;;;;5052273;28;20483;-71
2023/11/16 03:47:34;;;;;;;55.97;2.60;;;;;;;;;;5052238;28;20450;-71
2023/11/16 03:50:04;;;;;;;55.87;2.53;;;;;;;;;;5052712;28;20450;-70
2023/11/16 03:52:32;;;;;;;55.97;2.50;;;;;;;;;;5051908;28;20482;-70
2023/11/16 03:54:59;;;;;;;56.00;2.60;;;;;;;;;;5051918;28;20451;-71
2023/11/16 03:57:26;;;;;;;55.77;2.30;;;;;;;;;;5052227;28;20451;-71
2023/11/16 03:59:53;;;;;;;55.60;2.27;;;;;;;;;;5052328;28;20576;-70
2023/11/16 04:02:20;;;;;;;55.80;2.50;;;;;;;;;;5051965;28;20471;-71
2023/11/16 04:04:48;;;;;;;55.70;2.57;;;;;;;;;;5051938;28;20850;-71
2023/11/16 04:07:16;;;;;;;55.83;2.50;;;;;;;;;;5051487;28;20458;-71
2023/11/16 04:09:44;;;;;;;55.33;2.40;;;;;;;;;;5051771;28;20462;-71
2023/11/16 04:12:12;;;;;;;55.67;2.23;;;;;;;;;;5051962;28;20502;-70
2023/11/16 04:14:40;;;;;;;55.50;2.00;;;;;;;;;;5051682;28;20446;-71
2023/11/16 04:17:09;;;;;;;59.10;2.40;;;;;;;;;;5051230;28;20478;-70
2023/11/16 04:19:36;;;;;;;55.80;2.10;;;;;;;;;;5051621;28;20853;-71
2023/11/16 04:22:07;;;;;;;56.50;2.50;;;;;;;;;;5051721;28;20466;-71
2023/11/16 04:24:38;;;;;;;55.90;2.33;;;;;;;;;;5051696;28;21025;-70
2023/11/16 04:27:07;;;;;;;55.57;2.10;;;;;;;;;;5051550;28;20451;-71
2023/11/16 04:29:34;;;;;;;55.67;2.30;;;;;;;;;;5051651;28;20828;-71
2023/11/16 04:32:01;;;;;;;55.27;2.50;;;;;;;;;;5051412;28;20462;-71
2023/11/16 04:34:28;;;;;;;55.97;2.30;;;;;;;;;;5051302;28;20449;-71
2023/11/16 04:36:57;;;;;;;55.77;2.23;;;;;;;;;;5043337;28;20451;-71
2023/11/16 04:39:25;;;;;;;55.90;2.60;;;;;;;;;;5051498;28;20874;-71
2023/11/16 04:41:52;;;;;;;55.90;2.20;;;;;;;;;;5051319;28;21044;-71
2023/11/16 04:44:21;;;;;;;55.47;2.10;;;;;;;;;;5051336;28;20826;-71
2023/11/16 04:46:48;;;;;;;56.00;2.00;;;;;;;;;;5051109;28;20447;-71
2023/11/16 04:49:16;;;;;;;56.10;2.17;;;;;;;;;;5051306;28;20451;-71
2023/11/16 04:51:44;;;;;;;55.97;2.20;;;;;;;;;;5051294;28;20524;-71
2023/11/16 04:54:11;;;;;;;55.80;2.30;;;;;;;;;;5051147;28;20471;-71
2023/11/16 04:56:38;;;;;;;55.77;2.20;;;;;;;;;;5051231;28;20504;-72
2023/11/16 04:59:05;;;;;;;55.87;2.23;;;;;;;;;;5051109;28;20478;-71
2023/11/16 05:01:34;;;;;;;55.70;2.33;;;;;;;;;;5050709;28;20473;-70
2023/11/16 05:04:01;;;;;;;55.53;2.10;;;;;;;;;;5051165;28;20443;-71
2023/11/16 05:06:28;;;;;;;55.80;2.50;;;;;;;;;;5051065;28;20811;-71
2023/11/16 05:08:55;;;;;;;55.50;2.20;;;;;;;;;;5050615;28;20473;-71
2023/11/16 05:11:23;;;;;;;56.00;2.23;;;;;;;;;;5051078;28;20473;-71
2023/11/16 05:13:50;;;;;;;55.80;2.10;;;;;;;;;;5050844;28;20482;-71
2023/11/16 05:16:17;;;;;;;55.87;2.30;;;;;;;;;;5050934;28;20443;-71
2023/11/16 05:18:46;;;;;;;55.70;2.50;;;;;;;;;;5050959;28;20453;-71
2023/11/16 05:21:13;;;;;;;55.87;2.20;;;;;;;;;;5050568;28;20471;-71
2023/11/16 05:23:41;;;;;;;56.00;2.40;;;;;;;;;;5050864;28;20446;-71
2023/11/16 05:26:08;;;;;;;56.10;2.53;;;;;;;;;;5050655;28;20607;-71
2023/11/16 05:28:35;;;;;;;56.00;2.60;;;;;;;;;;5055299;28;20458;-71
2023/11/16 05:31:04;;;;;;;56.00;2.40;;;;;;;;;;5055102;28;20489;-71
2023/11/16 05:33:31;;;;;;;55.97;2.30;;;;;;;;;;5054928;28;20512;-71
2023/11/16 05:36:01;;;;;;;55.70;2.33;;;;;;;;;;5054898;28;20865;-71
2023/11/16 05:38:28;;;;;;;56.00;2.60;;;;;;;;;;5054952;28;20454;-71
2023/11/16 05:40:55;;;;;;;55.90;2.20;;;;;;;;;;5054539;28;20462;-71
2023/11/16 05:43:22;;;;;;;56.10;2.20;;;;;;;;;;5054817;28;20803;-71
2023/11/16 05:45:49;;;;;;;55.67;2.10;;;;;;;;;;5054498;28;20577;-71
2023/11/16 05:48:17;;;;;;;55.90;2.30;;;;;;;;;;5054575;28;20473;-71
2023/11/16 05:50:44;;;;;;;55.90;2.20;;;;;;;;;;5054551;28;20536;-71
2023/11/16 05:53:12;;;;;;;55.90;2.27;;;;;;;;;;5054736;28;20473;-71
2023/11/16 05:55:40;;;;;;;55.43;2.20;;;;;;;;;;5054159;28;20452;-71
2023/11/16 05:58:07;;;;;;;55.70;2.20;;;;;;;;;;5054346;28;20493;-71
2023/11/16 06:00:36;;;;;;;55.83;2.60;;;;;;;;;;5054578;28;20470;-71
2023/11/16 06:03:04;;;;;;;57.47;2.57;;;;;;;;;;5054490;28;20452;-71
2023/11/16 06:05:32;;;;;;;55.80;2.13;;;;;;;;;;5054353;28;20496;-71
2023/11/16 06:07:59;;;;;;;55.67;2.30;;;;;;;;;;5054190;28;20455;-71
2023/11/16 06:10:27;;;;;;;56.17;2.40;;;;;;;;;;5054031;28;20453;-71
2023/11/16 06:12:57;;;;;;;55.87;2.70;;;;;;;;;;5054216;28;20877;-71
2023/11/16 06:15:25;;;;;;;55.90;2.10;;;;;;;;;;5054182;28;20533;-71
2023/11/16 06:17:54;;;;;;;56.57;2.80;;;;;;;;;;5053800;28;20951;-71
2023/11/16 06:20:22;;;;;;;56.20;2.60;;;;;;;;;;5054014;28;20451;-71
2023/11/16 06:22:50;;;;;;;55.97;2.30;;;;;;;;;;5053783;28;20460;-71
2023/11/16 06:25:17;;;;;;;57.27;2.83;;;;;;;;;;5053602;28;20525;-71
2023/11/16 06:27:46;;;;;;;56.17;2.57;;;;;;;;;;5053685;28;20821;-71
2023/11/16 06:30:14;;;;;;;55.90;2.27;;;;;;;;;;5053780;28;20453;-71
2023/11/16 06:32:42;;;;;;;56.20;2.40;;;;;;;;;;5053671;28;20457;-71
2023/11/16 06:35:09;;;;;;;55.47;2.17;;;;;;;;;;5053581;28;20502;-71
2023/11/16 06:37:37;;;;;;;55.80;2.00;;;;;;;;;;5053363;28;20975;-71
2023/11/16 06:40:05;;;;;;;56.10;2.30;;;;;;;;;;5052915;28;20457;-71
2023/11/16 06:42:36;;;;;;;55.90;2.40;;;;;;;;;;5053671;28;20548;-71
2023/11/16 06:45:05;;;;;;;56.10;2.40;;;;;;;;;;5053688;28;20508;-71
2023/11/16 06:47:33;;;;;;;55.47;2.20;;;;;;;;;;5053620;28;20955;-71
2023/11/16 06:50:02;;;;;;;55.67;2.33;;;;;;;;;;5053585;28;20482;-71
2023/11/16 06:52:30;;;;;;;55.83;2.37;;;;;;;;;;5053442;28;20598;-71
2023/11/16 06:54:57;;;;;;;55.57;2.10;;;;;;;;;;5053717;28;20461;-71
2023/11/16 06:57:26;;;;;;;56.00;2.00;;;;;;;;;;5053496;28;20451;-71
2023/11/16 06:59:53;;;;;;;55.67;2.40;;;;;;;;;;5053221;28;20455;-71
2023/11/16 07:02:22;;;;;;;55.80;2.23;;;;;;;;;;5053092;28;20469;-71
2023/11/16 07:04:49;;;;;;;56.10;2.67;;;;;;;;;;5053178;28;20950;-71
2023/11/16 07:07:16;;;;;;;56.00;2.63;;;;;;;;;;5053105;28;20575;-71
2023/11/16 07:09:45;;;;;;;55.60;2.10;;;;;;;;;;5053184;28;20454;-71
2023/11/16 07:12:13;;;;;;;55.80;2.27;;;;;;;;;;5052901;28;20478;-71
2023/11/16 07:14:41;;;;;;;55.90;2.70;;;;;;;;;;5052797;28;20476;-71
2023/11/16 07:17:10;;;;;;;55.80;2.30;;;;;;;;;;5052972;28;20818;-71
2023/11/16 07:19:39;;;;;;;55.97;2.90;;;;;;;;;;5052918;28;20457;-71
2023/11/16 07:22:08;;;;;;;55.90;2.10;;;;;;;;;;5053067;28;20478;-71
2023/11/16 07:24:36;;;;;;;55.73;2.30;;;;;;;;;;5052856;28;20458;-71
2023/11/16 07:27:03;;;;;;;55.77;2.20;;;;;;;;;;5052490;28;20549;-71
2023/11/16 07:29:31;;;;;;;55.87;2.70;;;;;;;;;;5052702;28;20458;-71
2023/11/16 07:31:58;;;;;;;55.70;2.10;;;;;;;;;;5052874;28;20475;-71
2023/11/16 07:34:26;;;;;;;55.83;2.27;;;;;;;;;;5052213;28;20887;-71
2023/11/16 07:36:54;;;;;;;56.10;2.40;;;;;;;;;;5052168;28;20935;-71
2023/11/16 07:39:21;;;;;;;55.90;2.00;;;;;;;;;;5052402;28;20451;-71
2023/11/16 07:41:51;;;;;;;56.00;2.13;;;;;;;;;;5052352;28;20470;-71
2023/11/16 07:44:18;;;;;;;55.70;2.07;;;;;;;;;;5052596;28;20879;-71
2023/11/16 07:46:46;;;;;;;55.73;2.10;;;;;;;;;;5052222;28;20493;-71
2023/11/16 07:49:13;;;;;;;55.87;2.07;;;;;;;;;;5052239;28;20443;-71
2023/11/16 07:51:40;;;;;;;55.73;2.40;;;;;;;;;;5052345;28;20562;-71
2023/11/16 07:54:11;;;;;;;55.67;2.30;;;;;;;;;;5052220;28;20838;-71
2023/11/16 07:56:38;;;;;;;55.90;2.10;;;;;;;;;;5052071;28;20950;-71
2023/11/16 07:59:08;;;;;;;55.57;2.10;;;;;;;;;;5052184;28;20781;-71
2023/11/16 08:01:40;;;;;;;55.50;2.00;;;;;;;;;;5052086;28;20478;-71
2023/11/16 08:04:06;;;;;;;55.70;2.00;;;;;;;;;;5043931;28;20447;-71
2023/11/16 08:06:35;;;;;;;56.00;2.73;;;;;;;;;;5051782;28;20838;-71
2023/11/16 08:09:03;;;;;;;55.77;2.10;;;;;;;;;;5051417;28;20483;-71
2023/11/16 08:11:31;;;;;;;55.60;1.93;;;;;;;;;;5051756;28;20503;-71
2023/11/16 08:13:58;;;;;;;56.10;2.17;;;;;;;;;;5051773;28;20543;-71
2023/11/16 08:16:25;;;;;;;55.60;1.80;;;;;;;;;;5051722;28;20443;-71
2023/11/16 08:18:53;;;;;;;55.77;2.07;;;;;;;;;;5051564;28;20446;-71
2023/11/16 08:21:20;;;;;;;55.60;2.10;;;;;;;;;;5051434;28;20481;-71
2023/11/16 08:23:48;;;;;;;55.43;2.17;;;;;;;;;;5051585;28;20462;-71
2023/11/16 08:26:17;;;;;;;55.63;2.13;;;;;;;;;;5051519;28;20490;-71
2023/11/16 08:28:46;;;;;;;55.60;1.87;;;;;;;;;;5051388;28;20490;-71
2023/11/16 08:31:14;;;;;;;55.87;2.20;;;;;;;;;;5051644;28;20473;-71
2023/11/16 08:33:41;;;;;;;55.57;2.00;;;;;;;;;;5050809;28;20828;-71
2023/11/16 08:36:10;;;;;;;56.67;3.00;;;;;;;;;;5050587;28;20765;-69
2023/11/16 08:38:41;;;;;;;56.27;2.93;;;;;;;;;;5051198;28;20952;-69
2023/11/16 08:41:09;;;;;;;56.23;2.70;;;;;;;;;;5051390;28;20477;-71
2023/11/16 08:43:37;;;;;;;55.90;2.20;;;;;;;;;;5051260;28;20499;-71
2023/11/16 08:46:07;;;;;;;55.83;2.20;;;;;;;;;;5051117;28;20487;-70
2023/11/16 08:48:34;;;;;;;54.90;2.40;;;;;;;;;;5050775;28;20461;-70
2023/11/16 08:51:03;;;;;;;55.60;1.90;;;;;;;;;;5051400;28;20808;-70
2023/11/16 08:53:32;;;;;;;56.57;2.97;;;;;;;;;;5051328;28;20945;-70
2023/11/16 08:56:03;;;;;;;56.10;2.40;;;;;;;;;;5051130;28;20490;-70
2023/11/16 08:58:31;;;;;;;55.47;2.07;;;;;;;;;;5050866;28;20485;-70
2023/11/16 09:01:00;;;;;;;55.07;1.87;;;;;;;;;;5050460;28;21002;-70
2023/11/16 09:03:29;;;;;;;55.80;2.10;;;;;;;;;;5051116;28;20474;-70
2023/11/16 09:05:56;;;;;;;56.00;2.20;;;;;;;;;;5050949;28;20490;-70
2023/11/16 09:08:24;;;;;;;55.70;2.20;;;;;;;;;;5050710;28;20455;-70
2023/11/16 09:10:52;;;;;;;55.87;2.00;;;;;;;;;;5050691;28;20478;-70
2023/11/16 09:13:19;;;;;;;55.77;2.17;;;;;;;;;;5050909;28;20447;-71
2023/11/16 09:15:46;;;;;;;55.57;1.90;;;;;;;;;;5051134;28;20450;-70
2023/11/16 09:18:15;;;;;;;55.37;1.83;;;;;;;;;;5050875;28;20455;-70
2023/11/16 09:20:46;;;;;;;55.43;1.97;;;;;;;;;;5050801;28;20840;-70
2023/11/16 09:23:14;;;;;;;55.50;1.90;;;;;;;;;;5050754;28;20447;-70
2023/11/16 09:25:41;;;;;;;55.83;2.57;;;;;;;;;;5051000;28;20451;-71
2023/11/16 09:28:11;;;;;;;55.17;2.10;;;;;;;;;;5050370;28;20453;-70
2023/11/16 09:30:40;;;;;;;55.90;2.10;;;;;;;;;;5050947;28;20471;-70
2023/11/16 09:33:09;;;;;;;55.40;1.70;;;;;;;;;;5050659;28;20448;-70
2023/11/16 09:35:38;;;;;;;56.20;2.40;;;;;;;;;;5050942;28;20458;-71
2023/11/16 09:38:09;;;;;;;55.07;2.10;;;;;;;;;;5050603;28;21064;-71
2023/11/16 09:40:37;;;;;;;55.27;1.90;;;;;;;;;;5050689;28;20517;-71
2023/11/16 09:43:16;;;;;;;55.07;1.90;;;;;;;;;;5050588;28;20968;-71
2023/11/16 09:45:47;;;;;;;58.97;2.20;;;;;;;;;;5050501;28;20457;-71
2023/11/16 09:48:14;;;;;;;55.47;1.97;;;;;;;;;;5043037;28;20451;-70
2023/11/16 09:50:44;;;;;;;54.50;1.80;;;;;;;;;;5050624;28;20816;-70
2023/11/16 09:53:17;;;;;;;55.47;2.00;;;;;;;;;;5050190;28;20459;-70
2023/11/16 09:55:46;;;;;;;54.90;2.30;;;;;;;;;;5050670;28;20477;-70
2023/11/16 09:58:17;;;;;;;56.57;3.90;;;;;;;;;;5050061;28;20513;-71
2023/11/16 10:00:48;;;;;;;55.27;1.90;;;;;;;;;;5050420;28;20474;-71
2023/11/16 10:03:19;;;;;;;55.47;1.97;;;;;;;;;;5050277;28;20798;-71
2023/11/16 10:05:47;;;;;;;55.60;1.90;;;;;;;;;;5050183;28;20473;-70
2023/11/16 10:08:15;;;;;;;55.80;2.00;;;;;;;;;;5042187;28;20482;-71
2023/11/16 10:10:52;;;;;;;55.60;1.90;;;;;;;;;;5050299;28;20501;-70
2023/11/16 10:13:19;;;;;;;55.70;1.80;;;;;;;;;;5050971;28;20792;-71
2023/11/16 10:15:48;;;;;;;54.80;1.70;;;;;;;;;;5054068;28;20484;-70
2023/11/16 10:18:15;;;;;;;55.63;2.20;;;;;;;;;;5053929;28;20490;-70
2023/11/16 10:20:43;;;;;;;55.70;1.90;;;;;;;;;;5053987;28;20471;-71
2023/11/16 10:23:11;;;;;;;55.90;1.83;;;;;;;;;;5053694;28;20447;-71
2023/11/16 10:25:40;;;;;;;55.47;1.90;;;;;;;;;;5054256;28;20524;-71
2023/11/16 10:28:17;;;;;;;55.37;1.90;;;;;;;;;;5053838;28;20498;-70
2023/11/16 10:30:46;;;;;;;55.60;1.73;;;;;;;;;;5051481;28;20925;-71
2023/11/16 10:33:16;;;;;;;55.90;2.10;;;;;;;;;;5044905;28;20549;-71
2023/11/16 10:35:46;;;;;;;55.33;1.80;;;;;;;;;;5053253;28;20542;-70
2023/11/16 10:38:15;;;;;;;55.60;2.00;;;;;;;;;;5053245;28;20538;-70
2023/11/16 10:40:43;;;;;;;55.80;1.80;;;;;;;;;;5052917;28;20471;-70
2023/11/16 10:43:11;;;;;;;55.27;1.90;;;;;;;;;;5053045;28;20534;-70
2023/11/16 10:45:42;;;;;;;55.70;1.90;;;;;;;;;;5052131;28;20699;-71
2023/11/16 10:48:09;;;;;;;55.80;2.10;;;;;;;;;;5053602;28;20920;-71
2023/11/16 10:50:36;;;;;;;55.33;2.23;;;;;;;;;;5053542;28;20498;-71
2023/11/16 10:53:04;;;;;;;58.10;3.03;;;;;;;;;;5053394;28;20473;-71
2023/11/16 10:55:33;;;;;;;55.40;2.47;;;;;;;;;;5053433;28;20451;-71
2023/11/16 10:58:04;;;;;;;55.90;2.33;;;;;;;;;;5053660;28;20451;-71
2023/11/16 11:00:34;;;;;;;55.77;2.10;;;;;;;;;;5053415;28;20446;-71
2023/11/16 11:03:01;;;;;;;55.60;2.00;;;;;;;;;;5053441;28;20456;-71
2023/11/16 11:05:30;;;;;;;55.77;2.07;;;;;;;;;;5053336;28;20451;-72
2023/11/16 11:07:57;;;;;;;56.07;2.33;;;;;;;;;;5052904;28;20491;-71
2023/11/16 11:10:27;;;;;;;55.47;1.90;;;;;;;;;;5053053;28;20823;-71
2023/11/16 11:12:55;;;;;;;56.27;2.83;;;;;;;;;;5053355;28;20828;-71
2023/11/16 11:15:29;;;;;;;56.00;2.27;;;;;;;;;;5053347;28;20452;-71
2023/11/16 11:17:58;;;;;;;55.77;2.20;;;;;;;;;;5052910;28;20533;-71
2023/11/16 11:20:32;;;;;;;55.57;2.40;;;;;;;;;;5053160;28;20802;-71
2023/11/16 11:23:04;;;;;;;55.70;2.30;;;;;;;;;;5052608;28;20952;-71
2023/11/16 11:25:32;;;;;;;55.90;2.03;;;;;;;;;;5052575;28;20944;-71
2023/11/16 11:27:59;;;;;;;55.70;2.53;;;;;;;;;;5052876;28;20505;-71
2023/11/16 11:30:28;;;;;;;60.53;2.97;;;;;;;;;;5052951;28;20458;-71
2023/11/16 11:32:59;;;;;;;55.90;2.23;;;;;;;;;;5053103;28;20446;-71
2023/11/16 11:35:26;;;;;;;55.90;2.80;;;;;;;;;;5052757;28;20452;-71
2023/11/16 11:37:53;;;;;;;55.43;1.93;;;;;;;;;;5052776;28;20487;-71
2023/11/16 11:40:24;;;;;;;65.37;3.50;;;;;;;;;;5052412;28;20455;-71
2023/11/16 11:42:52;;;;;;;56.10;2.00;;;;;;;;;;5052290;28;20943;-71
2023/11/16 11:45:20;;;;;;;55.93;2.67;;;;;;;;;;5052421;28;20947;-71
2023/11/16 11:47:54;;;;;;;55.27;2.10;;;;;;;;;;5051841;28;20519;-71
2023/11/16 11:50:25;;;;;;;55.70;2.77;;;;;;;;;;5052316;28;20447;-71
2023/11/16 11:52:53;;;;;;;56.20;1.93;;;;;;;;;;5052315;28;20448;-71
2023/11/16 11:55:25;;;;;;;55.83;2.60;;;;;;;;;;5052531;28;20452;-71
2023/11/16 11:57:52;;;;;;;55.77;1.97;;;;;;;;;;5052340;28;20458;-72
2023/11/16 12:00:22;;;;;;;56.00;2.20;;;;;;;;;;5052385;28;20452;-72
2023/11/16 12:02:51;;;;;;;59.20;2.80;;;;;;;;;;5052532;28;20544;-72
2023/11/16 12:05:18;;;;;;;57.43;2.10;;;;;;;;;;5044129;28;20504;-72
2023/11/16 12:07:58;;;;;;;55.67;1.87;;;;;;;;;;5052224;28;20603;-72
2023/11/16 12:10:25;;;;;;;55.60;1.77;;;;;;;;;;5069736;28;20450;-72
2023/11/16 12:12:52;;;;;;;55.80;2.03;;;;;;;;;;5073417;28;20515;-72
2023/11/16 12:15:19;;;;;;;55.57;2.10;;;;;;;;;;5073832;28;20481;-71
2023/11/16 12:17:46;;;;;;;55.40;2.10;;;;;;;;;;5072362;28;20442;-72
2023/11/16 12:20:15;;;;;;;55.77;2.23;;;;;;;;;;5075060;28;20893;-71
2023/11/16 12:22:42;;;;;;;55.80;1.90;;;;;;;;;;5074744;28;20630;-71
2023/11/16 12:25:12;;;;;;;55.43;1.87;;;;;;;;;;5071168;28;20459;-72
2023/11/16 12:27:42;;;;;;;55.30;1.80;;;;;;;;;;5070276;28;20920;-72
2023/11/16 12:30:17;;;;;;;55.43;1.83;;;;;;;;;;5069009;28;20458;-72
2023/11/16 12:32:44;;;;;;;55.67;1.73;;;;;;;;;;5065407;28;20772;-72
2023/11/16 12:35:14;;;;;;;55.67;2.50;;;;;;;;;;5068756;28;20490;-72
2023/11/16 12:37:43;;;;;;;55.60;1.97;;;;;;;;;;5070078;28;20451;-72
2023/11/16 12:40:18;;;;;;;55.70;2.00;;;;;;;;;;5073642;28;20469;-72
2023/11/16 12:42:45;;;;;;;55.80;1.77;;;;;;;;;;5072959;28;20445;-71
2023/11/16 12:45:13;;;;;;;56.87;2.37;;;;;;;;;;5072996;28;20726;-72
2023/11/16 12:47:40;;;;;;;55.03;1.87;;;;;;;;;;5074023;28;20490;-72
2023/11/16 12:50:08;;;;;;;55.47;2.00;;;;;;;;;;5067108;28;20447;-72
2023/11/16 12:52:36;;;;;;;55.43;1.90;;;;;;;;;;5055351;28;20474;-72
2023/11/16 12:55:09;;;;;;;55.60;2.20;;;;;;;;;;5054175;28;20451;-72
2023/11/16 12:57:37;;;;;;;55.47;1.90;;;;;;;;;;5053198;28;20974;-72
2023/11/16 13:00:08;;;;;;;55.33;2.83;;;;;;;;;;5052662;28;20445;-72
2023/11/16 13:02:35;;;;;;;56.37;2.30;;;;;;;;;;5052519;28;20978;-72
2023/11/16 13:05:05;;;;;;;55.80;2.13;;;;;;;;;;5052178;28;20451;-72
2023/11/16 13:07:32;;;;;;;55.60;2.20;;;;;;;;;;5052029;28;20495;-72
2023/11/16 13:10:00;;;;;;;56.00;2.10;;;;;;;;;;5051841;28;20937;-72
2023/11/16 13:12:28;;;;;;;55.73;2.00;;;;;;;;;;5052652;28;20534;-72
2023/11/16 13:14:55;;;;;;;55.80;2.20;;;;;;;;;;5054066;28;20508;-70
2023/11/16 13:17:22;;;;;;;55.17;2.07;;;;;;;;;;5071698;28;20507;-69
2023/11/16 13:19:50;;;;;;;55.70;2.00;;;;;;;;;;5061926;28;20541;-70
2023/11/16 13:22:17;;;;;;;55.40;2.20;;;;;;;;;;5051761;28;20472;-70
2023/11/16 13:24:44;;;;;;;55.33;1.73;;;;;;;;;;5051786;28;20449;-69
2023/11/16 13:27:11;;;;;;;55.50;1.80;;;;;;;;;;5051003;28;20455;-69
2023/11/16 13:29:43;;;;;;;55.23;1.87;;;;;;;;;;5051100;28;20817;-70
2023/11/16 13:32:10;;;;;;;56.07;2.17;;;;;;;;;;5051019;28;20471;-70
2023/11/16 13:34:38;;;;;;;60.27;2.00;;;;;;;;;;5051333;28;20768;-70
2023/11/16 13:37:05;;;;;;;55.43;2.50;;;;;;;;;;5051499;28;20521;-70
2023/11/16 13:39:33;;;;;;;55.47;2.03;;;;;;;;;;5050571;28;20497;-70
2023/11/16 13:42:00;;;;;;;55.57;1.63;;;;;;;;;;5050341;28;20997;-69
2023/11/16 13:44:27;;;;;;;55.60;2.20;;;;;;;;;;5050296;28;20447;-70
2023/11/16 13:46:56;;;;;;;55.70;2.00;;;;;;;;;;5050920;28;20446;-70
2023/11/16 13:49:23;;;;;;;55.57;1.83;;;;;;;;;;5054558;28;20486;-69
2023/11/16 13:51:50;;;;;;;55.57;2.03;;;;;;;;;;5054776;28;20470;-70
2023/11/16 13:54:17;;;;;;;55.60;1.90;;;;;;;;;;5054468;28;20453;-70
2023/11/16 13:56:48;;;;;;;55.93;2.27;;;;;;;;;;5054578;28;20729;-70
2023/11/16 13:59:17;;;;;;;55.67;2.03;;;;;;;;;;5054428;28;20809;-69
2023/11/16 14:01:45;;;;;;;55.77;2.33;;;;;;;;;;5054534;28;20482;-70
2023/11/16 14:04:14;;;;;;;55.70;1.90;;;;;;;;;;5054272;28;20526;-69
2023/11/16 14:06:42;;;;;;;55.57;2.33;;;;;;;;;;5054184;28;20504;-70
2023/11/16 14:09:13;;;;;;;55.43;2.10;;;;;;;;;;5053882;28;20491;-69
2023/11/16 14:11:40;;;;;;;55.57;2.00;;;;;;;;;;5054479;28;20547;-70
2023/11/16 14:14:08;;;;;;;55.50;2.00;;;;;;;;;;5054170;28;20451;-70
2023/11/16 14:16:35;;;;;;;57.03;3.70;;;;;;;;;;5054153;28;20454;-70
2023/11/16 14:19:04;;;;;;;55.80;1.90;;;;;;;;;;5054133;28;20443;-70
2023/11/16 14:21:34;;;;;;;55.50;2.00;;;;;;;;;;5053869;28;20577;-70
2023/11/16 14:24:05;;;;;;;56.40;2.10;;;;;;;;;;5054055;28;21002;-70
2023/11/16 14:26:33;;;;;;;56.20;2.10;;;;;;;;;;5054284;28;20493;-70
2023/11/16 14:29:01;;;;;;;56.00;2.10;;;;;;;;;;5053682;28;20797;-70
2023/11/16 14:31:28;;;;;;;56.30;2.40;;;;;;;;;;5053661;28;20471;-70
2023/11/16 14:33:56;;;;;;;55.70;2.30;;;;;;;;;;5053902;28;20457;-70
2023/11/16 14:36:23;;;;;;;55.87;2.77;;;;;;;;;;5053425;28;20442;-70
2023/11/16 14:38:51;;;;;;;56.17;2.27;;;;;;;;;;5053592;28;20458;-70
2023/11/16 14:41:19;;;;;;;56.07;2.20;;;;;;;;;;5053431;28;20481;-70